QPS5 CYKA-CYKA
Flight info
| Callsign | QPS5 |
|---|---|
| Flight time | 1h 30m |
| Altitude | 12000 |
| Route | OLONA2 OLONA DCT OVENA |
| Aircraft | P46T/L-SBDGRWY/SB1 |
Departure
| Time | 2026-04-15 16:50 |
|---|---|
| Airport | Kamloops John Moose Fulton Field Regional Airport (CYKA) |
Arrival
| Time | 2026-04-15 18:20 |
|---|---|
| Airport | Kamloops John Moose Fulton Field Regional Airport (CYKA) |
| Time | Latitude | Longitude | Altitude | Speed | Heading |
|---|---|---|---|---|---|
| 2026-04-15 16:45 | 50.70581 | -120.43749 | 1129 ft | 0 kts | 59° |
| 2026-04-15 16:47 | 50.70582 | -120.43749 | 1129 ft | 0 kts | 59° |
| 2026-04-15 16:47 | 50.70575 | -120.43711 | 1131 ft | 7 kts | 143° |
| 2026-04-15 16:48 | 50.70520 | -120.43663 | 1129 ft | 11 kts | 154° |
| 2026-04-15 16:48 | 50.70433 | -120.43603 | 1129 ft | 18 kts | 159° |
| 2026-04-15 16:48 | 50.70308 | -120.43516 | 1129 ft | 17 kts | 156° |
| 2026-04-15 16:48 | 50.70267 | -120.43422 | 1129 ft | 8 kts | 102° |
| 2026-04-15 16:49 | 50.70227 | -120.43271 | 1129 ft | 23 kts | 148° |
| 2026-04-15 16:49 | 50.70101 | -120.43192 | 1133 ft | 18 kts | 202° |
| 2026-04-15 16:49 | 50.70065 | -120.43260 | 1124 ft | 8 kts | 283° |
| 2026-04-15 16:49 | 50.70120 | -120.43636 | 1131 ft | 62 kts | 283° |
| 2026-04-15 16:50 | 50.70242 | -120.44513 | 1199 ft | 96 kts | 282° |
| 2026-04-15 16:50 | 50.70380 | -120.45573 | 1576 ft | 101 kts | 283° |
| 2026-04-15 16:50 | 50.70544 | -120.46685 | 1968 ft | 108 kts | 283° |
| 2026-04-15 16:50 | 50.70535 | -120.47891 | 2264 ft | 120 kts | 243° |
| 2026-04-15 16:51 | 50.69789 | -120.48430 | 2695 ft | 124 kts | 182° |
| 2026-04-15 16:51 | 50.69000 | -120.47883 | 3196 ft | 133 kts | 125° |
| 2026-04-15 16:51 | 50.68667 | -120.46537 | 3727 ft | 133 kts | 106° |
| 2026-04-15 16:51 | 50.68354 | -120.45193 | 4251 ft | 130 kts | 107° |
| 2026-04-15 16:52 | 50.68042 | -120.43795 | 4575 ft | 146 kts | 106° |
| 2026-04-15 16:52 | 50.67690 | -120.42234 | 4959 ft | 152 kts | 107° |
| 2026-04-15 16:52 | 50.67329 | -120.40671 | 5447 ft | 151 kts | 107° |
| 2026-04-15 16:52 | 50.67170 | -120.39070 | 5926 ft | 148 kts | 84° |
| 2026-04-15 16:53 | 50.67178 | -120.37309 | 6012 ft | 174 kts | 86° |
| 2026-04-15 16:53 | 50.67181 | -120.35285 | 6012 ft | 194 kts | 86° |
| 2026-04-15 16:53 | 50.67190 | -120.33109 | 6010 ft | 201 kts | 86° |
| 2026-04-15 16:53 | 50.67201 | -120.30917 | 6156 ft | 195 kts | 86° |
| 2026-04-15 16:54 | 50.67213 | -120.28872 | 6628 ft | 185 kts | 85° |
| 2026-04-15 16:54 | 50.67224 | -120.26809 | 6833 ft | 189 kts | 86° |
| 2026-04-15 16:54 | 50.67232 | -120.24729 | 7104 ft | 191 kts | 86° |
| 2026-04-15 16:54 | 50.67242 | -120.22641 | 7386 ft | 190 kts | 86° |
| 2026-04-15 16:55 | 50.67256 | -120.20549 | 7649 ft | 191 kts | 86° |
| 2026-04-15 16:55 | 50.67276 | -120.18457 | 7895 ft | 192 kts | 86° |
| 2026-04-15 16:55 | 50.67294 | -120.16323 | 8000 ft | 200 kts | 85° |
| 2026-04-15 16:55 | 50.67308 | -120.14079 | 8008 ft | 209 kts | 87° |
| 2026-04-15 16:56 | 50.67331 | -120.11765 | 8014 ft | 213 kts | 86° |
| 2026-04-15 16:56 | 50.67357 | -120.09423 | 8014 ft | 215 kts | 85° |
| 2026-04-15 16:56 | 50.67395 | -120.07048 | 8008 ft | 218 kts | 86° |
| 2026-04-15 16:56 | 50.67425 | -120.04686 | 8009 ft | 219 kts | 86° |
| 2026-04-15 16:57 | 50.67460 | -120.02300 | 8005 ft | 215 kts | 86° |
| 2026-04-15 16:57 | 50.67497 | -119.99941 | 8003 ft | 211 kts | 86° |
| 2026-04-15 16:57 | 50.67529 | -119.97672 | 7993 ft | 209 kts | 85° |
| 2026-04-15 16:57 | 50.67549 | -119.95386 | 7991 ft | 208 kts | 86° |
| 2026-04-15 16:58 | 50.67576 | -119.93109 | 7990 ft | 208 kts | 86° |
| 2026-04-15 16:58 | 50.67604 | -119.90838 | 7988 ft | 207 kts | 86° |
| 2026-04-15 16:58 | 50.67633 | -119.88566 | 7989 ft | 207 kts | 85° |
| 2026-04-15 16:58 | 50.67654 | -119.86292 | 7973 ft | 208 kts | 86° |
| 2026-04-15 16:59 | 50.67673 | -119.84018 | 7974 ft | 208 kts | 86° |
| 2026-04-15 16:59 | 50.67700 | -119.81744 | 7978 ft | 208 kts | 86° |
| 2026-04-15 16:59 | 50.67729 | -119.79459 | 7978 ft | 209 kts | 86° |
| 2026-04-15 16:59 | 50.67753 | -119.77169 | 7979 ft | 209 kts | 85° |
| 2026-04-15 17:00 | 50.67777 | -119.74873 | 7985 ft | 209 kts | 86° |
| 2026-04-15 17:00 | 50.67820 | -119.72583 | 7986 ft | 209 kts | 86° |
| 2026-04-15 17:00 | 50.67868 | -119.70300 | 7986 ft | 208 kts | 85° |
| 2026-04-15 17:00 | 50.67912 | -119.68022 | 7983 ft | 208 kts | 86° |
| 2026-04-15 17:01 | 50.67954 | -119.65749 | 7971 ft | 207 kts | 86° |
| 2026-04-15 17:01 | 50.67999 | -119.63482 | 7974 ft | 207 kts | 86° |
| 2026-04-15 17:01 | 50.68049 | -119.61208 | 7970 ft | 208 kts | 85° |
| 2026-04-15 17:01 | 50.68098 | -119.58929 | 7967 ft | 208 kts | 85° |
| 2026-04-15 17:02 | 50.68140 | -119.56654 | 7963 ft | 207 kts | 86° |
| 2026-04-15 17:02 | 50.68186 | -119.54408 | 7769 ft | 205 kts | 86° |
| 2026-04-15 17:02 | 50.68235 | -119.52131 | 7324 ft | 209 kts | 85° |
| 2026-04-15 17:02 | 50.68278 | -119.49848 | 7021 ft | 207 kts | 86° |
| 2026-04-15 17:03 | 50.68318 | -119.47572 | 6685 ft | 208 kts | 86° |
| 2026-04-15 17:03 | 50.68360 | -119.45315 | 6326 ft | 206 kts | 86° |
| 2026-04-15 17:03 | 50.68408 | -119.43070 | 5954 ft | 203 kts | 86° |
| 2026-04-15 17:03 | 50.68460 | -119.40847 | 5544 ft | 201 kts | 86° |
| 2026-04-15 17:04 | 50.68525 | -119.38660 | 4877 ft | 200 kts | 86° |
| 2026-04-15 17:04 | 50.68597 | -119.36481 | 4246 ft | 198 kts | 86° |
| 2026-04-15 17:04 | 50.68670 | -119.34330 | 3606 ft | 195 kts | 86° |
| 2026-04-15 17:04 | 50.68732 | -119.32205 | 2981 ft | 191 kts | 85° |
| 2026-04-15 17:05 | 50.68768 | -119.30261 | 2950 ft | 166 kts | 86° |
| 2026-04-15 17:05 | 50.68810 | -119.28495 | 2699 ft | 163 kts | 79° |
| 2026-04-15 17:05 | 50.69337 | -119.26964 | 2409 ft | 162 kts | 38° |
| 2026-04-15 17:05 | 50.70368 | -119.26746 | 2222 ft | 155 kts | 331° |
| 2026-04-15 17:06 | 50.70734 | -119.28172 | 2047 ft | 155 kts | 252° |
| 2026-04-15 17:06 | 50.69916 | -119.29199 | 1863 ft | 155 kts | 189° |
| 2026-04-15 17:06 | 50.69137 | -119.28441 | 1922 ft | 129 kts | 103° |
| 2026-04-15 17:06 | 50.69461 | -119.27403 | 1921 ft | 110 kts | 16° |
| 2026-04-15 17:07 | 50.70062 | -119.27879 | 1892 ft | 103 kts | 296° |
| 2026-04-15 17:07 | 50.70170 | -119.29052 | 1893 ft | 113 kts | 263° |
| 2026-04-15 17:07 | 50.69678 | -119.29913 | 1931 ft | 119 kts | 189° |
| 2026-04-15 17:07 | 50.69010 | -119.29251 | 1943 ft | 124 kts | 108° |
| 2026-04-15 17:08 | 50.69341 | -119.28138 | 1945 ft | 122 kts | 24° |
| 2026-04-15 17:08 | 50.70129 | -119.28331 | 1952 ft | 121 kts | 314° |
| 2026-04-15 17:08 | 50.70256 | -119.29563 | 1926 ft | 125 kts | 241° |
| 2026-04-15 17:08 | 50.69513 | -119.30102 | 1927 ft | 124 kts | 171° |
| 2026-04-15 17:09 | 50.69055 | -119.29117 | 1872 ft | 124 kts | 81° |
| 2026-04-15 17:09 | 50.69635 | -119.28295 | 1804 ft | 120 kts | 0° |
| 2026-04-15 17:09 | 50.70408 | -119.28532 | 2118 ft | 109 kts | 1° |
| 2026-04-15 17:09 | 50.71097 | -119.27992 | 2365 ft | 118 kts | 42° |
| 2026-04-15 17:10 | 50.71438 | -119.27319 | 2576 ft | 118 kts | 53° |
| 2026-04-15 17:10 | 50.71745 | -119.26104 | 3001 ft | 125 kts | 78° |
| 2026-04-15 17:10 | 50.71809 | -119.24701 | 3350 ft | 130 kts | 89° |
| 2026-04-15 17:10 | 50.71766 | -119.23279 | 3648 ft | 133 kts | 91° |
| 2026-04-15 17:11 | 50.71716 | -119.21691 | 3760 ft | 154 kts | 91° |
| 2026-04-15 17:11 | 50.71662 | -119.20016 | 4188 ft | 152 kts | 93° |
| 2026-04-15 17:11 | 50.71466 | -119.18363 | 4627 ft | 155 kts | 104° |
| 2026-04-15 17:12 | 50.70878 | -119.15074 | 5501 ft | 157 kts | 105° |
| 2026-04-15 17:12 | 50.70591 | -119.13412 | 5890 ft | 158 kts | 105° |
| 2026-04-15 17:12 | 50.70298 | -119.11734 | 6288 ft | 159 kts | 105° |
| 2026-04-15 17:12 | 50.70006 | -119.10061 | 6703 ft | 159 kts | 105° |
| 2026-04-15 17:13 | 50.69714 | -119.08362 | 7092 ft | 162 kts | 105° |
| 2026-04-15 17:13 | 50.69424 | -119.06651 | 7528 ft | 161 kts | 105° |
| 2026-04-15 17:13 | 50.69130 | -119.04935 | 7900 ft | 163 kts | 106° |
| 2026-04-15 17:13 | 50.68829 | -119.03196 | 8285 ft | 166 kts | 105° |
| 2026-04-15 17:14 | 50.68527 | -119.01440 | 8713 ft | 166 kts | 105° |
| 2026-04-15 17:14 | 50.68218 | -118.99643 | 8945 ft | 180 kts | 105° |
| 2026-04-15 17:14 | 50.67872 | -118.97637 | 8960 ft | 199 kts | 106° |
| 2026-04-15 17:14 | 50.67498 | -118.95475 | 8964 ft | 209 kts | 106° |
| 2026-04-15 17:15 | 50.67118 | -118.93294 | 9333 ft | 197 kts | 106° |
| 2026-04-15 17:15 | 50.66769 | -118.91257 | 9707 ft | 192 kts | 105° |
| 2026-04-15 17:15 | 50.66421 | -118.89215 | 9890 ft | 194 kts | 106° |
| 2026-04-15 17:15 | 50.66071 | -118.87119 | 9943 ft | 203 kts | 105° |
| 2026-04-15 17:16 | 50.65703 | -118.84916 | 9955 ft | 211 kts | 106° |
| 2026-04-15 17:16 | 50.65322 | -118.82655 | 9954 ft | 216 kts | 106° |
| 2026-04-15 17:16 | 50.64933 | -118.80343 | 9956 ft | 220 kts | 105° |
| 2026-04-15 17:16 | 50.64539 | -118.78007 | 9955 ft | 221 kts | 105° |
| 2026-04-15 17:17 | 50.64142 | -118.75665 | 9947 ft | 221 kts | 106° |
| 2026-04-15 17:17 | 50.63750 | -118.73325 | 9950 ft | 221 kts | 106° |
| 2026-04-15 17:17 | 50.63352 | -118.70977 | 9951 ft | 222 kts | 105° |
| 2026-04-15 17:17 | 50.62951 | -118.68626 | 9950 ft | 222 kts | 106° |
| 2026-04-15 17:18 | 50.62553 | -118.66264 | 9948 ft | 224 kts | 106° |
| 2026-04-15 17:18 | 50.62164 | -118.63869 | 9949 ft | 227 kts | 106° |
| 2026-04-15 17:18 | 50.61777 | -118.61442 | 9950 ft | 229 kts | 105° |
| 2026-04-15 17:18 | 50.61394 | -118.59043 | 9947 ft | 223 kts | 106° |
| 2026-04-15 17:19 | 50.61009 | -118.56697 | 9942 ft | 219 kts | 108° |
| 2026-04-15 17:19 | 50.60558 | -118.54418 | 9940 ft | 217 kts | 109° |
| 2026-04-15 17:19 | 50.60094 | -118.52168 | 9938 ft | 216 kts | 110° |
| 2026-04-15 17:19 | 50.59633 | -118.49920 | 9931 ft | 217 kts | 109° |
| 2026-04-15 17:20 | 50.59180 | -118.47692 | 9929 ft | 216 kts | 109° |
| 2026-04-15 17:20 | 50.58720 | -118.45445 | 9926 ft | 216 kts | 110° |
| 2026-04-15 17:20 | 50.58264 | -118.43198 | 9926 ft | 216 kts | 110° |
| 2026-04-15 17:20 | 50.57803 | -118.40920 | 9930 ft | 216 kts | 109° |
| 2026-04-15 17:21 | 50.57344 | -118.38675 | 9930 ft | 215 kts | 110° |
| 2026-04-15 17:21 | 50.56893 | -118.36466 | 9933 ft | 215 kts | 109° |
| 2026-04-15 17:21 | 50.56430 | -118.34215 | 9932 ft | 216 kts | 109° |
| 2026-04-15 17:21 | 50.55967 | -118.31997 | 9939 ft | 213 kts | 109° |
| 2026-04-15 17:22 | 50.55505 | -118.29797 | 9930 ft | 211 kts | 110° |
| 2026-04-15 17:22 | 50.55063 | -118.27599 | 9933 ft | 211 kts | 109° |
| 2026-04-15 17:22 | 50.54611 | -118.25379 | 9937 ft | 215 kts | 110° |
| 2026-04-15 17:22 | 50.54155 | -118.23143 | 9937 ft | 215 kts | 110° |
| 2026-04-15 17:23 | 50.53705 | -118.20893 | 9928 ft | 215 kts | 109° |
| 2026-04-15 17:23 | 50.53249 | -118.18674 | 9926 ft | 212 kts | 110° |
| 2026-04-15 17:23 | 50.52790 | -118.16485 | 9932 ft | 211 kts | 110° |
| 2026-04-15 17:23 | 50.52364 | -118.14340 | 9612 ft | 202 kts | 109° |
| 2026-04-15 17:24 | 50.51912 | -118.12239 | 8728 ft | 205 kts | 110° |
| 2026-04-15 17:24 | 50.51439 | -118.10146 | 7962 ft | 201 kts | 109° |
| 2026-04-15 17:24 | 50.50981 | -118.08060 | 7219 ft | 202 kts | 110° |
| 2026-04-15 17:24 | 50.50513 | -118.06006 | 6523 ft | 197 kts | 109° |
| 2026-04-15 17:25 | 50.50059 | -118.03981 | 5768 ft | 197 kts | 109° |
| 2026-04-15 17:25 | 50.49600 | -118.01985 | 4977 ft | 190 kts | 110° |
| 2026-04-15 17:25 | 50.49164 | -118.00077 | 4382 ft | 182 kts | 110° |
| 2026-04-15 17:25 | 50.48739 | -117.98197 | 3807 ft | 184 kts | 109° |
| 2026-04-15 17:26 | 50.48296 | -117.96296 | 3060 ft | 185 kts | 110° |
| 2026-04-15 17:26 | 50.47729 | -117.94486 | 2359 ft | 183 kts | 130° |
| 2026-04-15 17:26 | 50.46836 | -117.93350 | 2305 ft | 150 kts | 146° |
| 2026-04-15 17:26 | 50.46038 | -117.92516 | 2301 ft | 126 kts | 151° |
| 2026-04-15 17:27 | 50.45305 | -117.91880 | 2312 ft | 118 kts | 152° |
| 2026-04-15 17:27 | 50.44557 | -117.91329 | 2312 ft | 120 kts | 165° |
| 2026-04-15 17:27 | 50.43733 | -117.90940 | 2327 ft | 129 kts | 166° |
| 2026-04-15 17:27 | 50.42848 | -117.90513 | 2337 ft | 137 kts | 164° |
| 2026-04-15 17:28 | 50.41919 | -117.90074 | 2334 ft | 142 kts | 165° |
| 2026-04-15 17:28 | 50.41027 | -117.89431 | 2560 ft | 137 kts | 137° |
| 2026-04-15 17:28 | 50.40382 | -117.88591 | 2924 ft | 126 kts | 175° |
| 2026-04-15 17:28 | 50.39594 | -117.89151 | 2867 ft | 124 kts | 239° |
| 2026-04-15 17:29 | 50.39791 | -117.90327 | 2532 ft | 127 kts | 323° |
| 2026-04-15 17:29 | 50.40629 | -117.90816 | 2186 ft | 128 kts | 340° |
| 2026-04-15 17:29 | 50.41447 | -117.91110 | 2119 ft | 113 kts | 1° |
| 2026-04-15 17:29 | 50.41956 | -117.90244 | 1979 ft | 126 kts | 85° |
| 2026-04-15 17:30 | 50.41515 | -117.89316 | 2454 ft | 116 kts | 171° |
| 2026-04-15 17:30 | 50.40629 | -117.89226 | 2598 ft | 139 kts | 180° |
| 2026-04-15 17:30 | 50.39609 | -117.89222 | 2786 ft | 154 kts | 183° |
| 2026-04-15 17:30 | 50.38479 | -117.89273 | 2910 ft | 163 kts | 183° |
| 2026-04-15 17:31 | 50.37306 | -117.89131 | 2918 ft | 175 kts | 175° |
| 2026-04-15 17:31 | 50.36058 | -117.88872 | 2925 ft | 186 kts | 174° |
| 2026-04-15 17:31 | 50.34759 | -117.88608 | 2930 ft | 190 kts | 174° |
| 2026-04-15 17:31 | 50.33456 | -117.88349 | 2923 ft | 188 kts | 174° |
| 2026-04-15 17:32 | 50.32161 | -117.88088 | 2922 ft | 187 kts | 173° |
| 2026-04-15 17:32 | 50.30891 | -117.87626 | 2933 ft | 188 kts | 160° |
| 2026-04-15 17:32 | 50.29679 | -117.86809 | 2935 ft | 191 kts | 155° |
| 2026-04-15 17:32 | 50.28468 | -117.85934 | 2935 ft | 192 kts | 156° |
| 2026-04-15 17:33 | 50.27301 | -117.85070 | 2503 ft | 183 kts | 150° |
| 2026-04-15 17:33 | 50.26497 | -117.83565 | 1924 ft | 176 kts | 106° |
| 2026-04-15 17:33 | 50.26389 | -117.81765 | 1903 ft | 161 kts | 79° |
| 2026-04-15 17:33 | 50.26617 | -117.80162 | 2189 ft | 144 kts | 79° |
| 2026-04-15 17:34 | 50.26763 | -117.78709 | 2457 ft | 127 kts | 68° |
| 2026-04-15 17:34 | 50.27190 | -117.77519 | 2581 ft | 127 kts | 56° |
| 2026-04-15 17:34 | 50.27539 | -117.76237 | 2708 ft | 131 kts | 64° |
| 2026-04-15 17:34 | 50.27982 | -117.75062 | 2986 ft | 122 kts | 66° |
| 2026-04-15 17:35 | 50.28335 | -117.73810 | 2953 ft | 123 kts | 57° |
| 2026-04-15 17:35 | 50.28699 | -117.72715 | 2902 ft | 113 kts | 61° |
| 2026-04-15 17:35 | 50.29137 | -117.71811 | 3054 ft | 90 kts | 36° |
| 2026-04-15 17:35 | 50.29542 | -117.70917 | 3153 ft | 87 kts | 53° |
| 2026-04-15 17:36 | 50.29781 | -117.69983 | 3244 ft | 101 kts | 71° |
| 2026-04-15 17:36 | 50.29986 | -117.69004 | 3474 ft | 99 kts | 73° |
| 2026-04-15 17:36 | 50.29760 | -117.68120 | 3686 ft | 99 kts | 175° |
| 2026-04-15 17:36 | 50.29289 | -117.68762 | 3748 ft | 108 kts | 246° |
| 2026-04-15 17:37 | 50.29163 | -117.69942 | 3678 ft | 130 kts | 298° |
| 2026-04-15 17:37 | 50.29910 | -117.70283 | 3970 ft | 106 kts | 15° |
| 2026-04-15 17:37 | 50.30380 | -117.69426 | 3843 ft | 134 kts | 72° |
| 2026-04-15 17:37 | 50.30004 | -117.67975 | 3583 ft | 159 kts | 123° |
| 2026-04-15 17:38 | 50.29344 | -117.67227 | 4200 ft | 96 kts | 169° |
| 2026-04-15 17:38 | 50.28860 | -117.67261 | 5078 ft | 175 kts | 191° |
| 2026-04-15 17:38 | 50.27886 | -117.67177 | 6256 ft | 123 kts | 141° |
| 2026-04-15 17:38 | 50.27538 | -117.65910 | 6548 ft | 137 kts | 91° |
| 2026-04-15 17:39 | 50.27914 | -117.64480 | 6323 ft | 162 kts | 22° |
| 2026-04-15 17:39 | 50.29129 | -117.64280 | 5363 ft | 195 kts | 358° |
| 2026-04-15 17:39 | 50.30245 | -117.65291 | 4961 ft | 191 kts | 303° |
| 2026-04-15 17:39 | 50.30436 | -117.67178 | 4487 ft | 171 kts | 256° |
| 2026-04-15 17:40 | 50.29871 | -117.68830 | 3901 ft | 177 kts | 239° |
| 2026-04-15 17:40 | 50.29247 | -117.70413 | 3436 ft | 154 kts | 244° |
| 2026-04-15 17:40 | 50.29278 | -117.71751 | 3594 ft | 119 kts | 300° |
| 2026-04-15 17:40 | 50.29949 | -117.72319 | 3852 ft | 117 kts | 10° |
| 2026-04-15 17:41 | 50.30381 | -117.71290 | 3976 ft | 141 kts | 94° |
| 2026-04-15 17:41 | 50.29859 | -117.69934 | 3506 ft | 160 kts | 145° |
| 2026-04-15 17:41 | 50.29266 | -117.68626 | 3356 ft | 141 kts | 85° |
| 2026-04-15 17:41 | 50.29852 | -117.67685 | 3311 ft | 127 kts | 352° |
| 2026-04-15 17:42 | 50.30399 | -117.68633 | 3883 ft | 127 kts | 278° |
| 2026-04-15 17:42 | 50.30154 | -117.69984 | 4067 ft | 146 kts | 242° |
| 2026-04-15 17:42 | 50.29671 | -117.71517 | 4106 ft | 166 kts | 242° |
| 2026-04-15 17:42 | 50.29095 | -117.73144 | 4310 ft | 174 kts | 240° |
| 2026-04-15 17:43 | 50.28527 | -117.74819 | 4665 ft | 175 kts | 243° |
| 2026-04-15 17:43 | 50.27977 | -117.76535 | 5112 ft | 176 kts | 244° |
| 2026-04-15 17:43 | 50.27405 | -117.78216 | 5608 ft | 176 kts | 243° |
| 2026-04-15 17:43 | 50.27020 | -117.80003 | 6031 ft | 168 kts | 262° |
| 2026-04-15 17:44 | 50.26932 | -117.81788 | 6455 ft | 164 kts | 278° |
| 2026-04-15 17:44 | 50.27105 | -117.83550 | 6861 ft | 164 kts | 281° |
| 2026-04-15 17:44 | 50.27287 | -117.85312 | 7257 ft | 164 kts | 281° |
| 2026-04-15 17:44 | 50.27482 | -117.87083 | 7649 ft | 166 kts | 281° |
| 2026-04-15 17:45 | 50.27696 | -117.88887 | 7999 ft | 168 kts | 281° |
| 2026-04-15 17:45 | 50.27895 | -117.90659 | 8454 ft | 166 kts | 281° |
| 2026-04-15 17:45 | 50.28115 | -117.92439 | 8827 ft | 169 kts | 284° |
| 2026-04-15 17:45 | 50.28455 | -117.94224 | 9199 ft | 172 kts | 287° |
| 2026-04-15 17:46 | 50.28795 | -117.96010 | 9648 ft | 171 kts | 285° |
| 2026-04-15 17:46 | 50.29134 | -117.97888 | 9735 ft | 188 kts | 284° |
| 2026-04-15 17:46 | 50.29496 | -117.99913 | 9737 ft | 196 kts | 284° |
| 2026-04-15 17:46 | 50.29863 | -118.01948 | 9735 ft | 198 kts | 284° |
| 2026-04-15 17:47 | 50.30232 | -118.04023 | 9738 ft | 198 kts | 284° |
| 2026-04-15 17:47 | 50.30601 | -118.06093 | 9734 ft | 197 kts | 284° |
| 2026-04-15 17:47 | 50.30967 | -118.08156 | 9733 ft | 196 kts | 284° |
| 2026-04-15 17:47 | 50.31332 | -118.10211 | 9733 ft | 196 kts | 284° |
| 2026-04-15 17:48 | 50.31695 | -118.12268 | 9733 ft | 196 kts | 284° |
| 2026-04-15 17:48 | 50.32060 | -118.14326 | 9733 ft | 196 kts | 284° |
| 2026-04-15 17:48 | 50.32422 | -118.16374 | 9732 ft | 195 kts | 284° |
| 2026-04-15 17:48 | 50.32783 | -118.18414 | 9730 ft | 194 kts | 284° |
| 2026-04-15 17:49 | 50.33141 | -118.20442 | 9733 ft | 193 kts | 284° |
| 2026-04-15 17:49 | 50.33497 | -118.22466 | 9745 ft | 193 kts | 284° |
| 2026-04-15 17:49 | 50.33854 | -118.24495 | 9743 ft | 193 kts | 284° |
| 2026-04-15 17:49 | 50.34210 | -118.26521 | 9743 ft | 193 kts | 284° |
| 2026-04-15 17:50 | 50.34565 | -118.28541 | 9742 ft | 193 kts | 284° |
| 2026-04-15 17:50 | 50.34922 | -118.30573 | 9740 ft | 193 kts | 284° |
| 2026-04-15 17:50 | 50.35276 | -118.32597 | 9739 ft | 192 kts | 284° |
| 2026-04-15 17:50 | 50.35629 | -118.34618 | 9736 ft | 192 kts | 284° |
| 2026-04-15 17:51 | 50.35982 | -118.36621 | 9730 ft | 189 kts | 284° |
| 2026-04-15 17:51 | 50.36326 | -118.38612 | 9736 ft | 190 kts | 284° |
| 2026-04-15 17:51 | 50.36675 | -118.40616 | 9734 ft | 191 kts | 284° |
| 2026-04-15 17:51 | 50.37026 | -118.42625 | 9738 ft | 193 kts | 284° |
| 2026-04-15 17:52 | 50.37378 | -118.44650 | 9739 ft | 192 kts | 284° |
| 2026-04-15 17:52 | 50.37731 | -118.46672 | 9740 ft | 192 kts | 284° |
| 2026-04-15 17:52 | 50.38082 | -118.48690 | 9746 ft | 193 kts | 284° |
| 2026-04-15 17:52 | 50.38434 | -118.50718 | 9745 ft | 193 kts | 284° |
| 2026-04-15 17:53 | 50.38784 | -118.52744 | 9745 ft | 193 kts | 284° |
| 2026-04-15 17:53 | 50.39134 | -118.54766 | 9743 ft | 192 kts | 283° |
| 2026-04-15 17:53 | 50.39478 | -118.56752 | 9740 ft | 191 kts | 283° |
| 2026-04-15 17:53 | 50.39823 | -118.58755 | 9738 ft | 191 kts | 284° |
| 2026-04-15 17:54 | 50.40171 | -118.60765 | 9735 ft | 191 kts | 284° |
| 2026-04-15 17:54 | 50.40514 | -118.62773 | 9735 ft | 191 kts | 284° |
| 2026-04-15 17:54 | 50.40861 | -118.64789 | 9732 ft | 192 kts | 284° |
| 2026-04-15 17:54 | 50.41212 | -118.66821 | 9734 ft | 194 kts | 284° |
| 2026-04-15 17:55 | 50.41563 | -118.68867 | 9738 ft | 195 kts | 284° |
| 2026-04-15 17:55 | 50.41914 | -118.70917 | 9739 ft | 195 kts | 284° |
| 2026-04-15 17:55 | 50.42267 | -118.72942 | 9746 ft | 190 kts | 283° |
| 2026-04-15 17:55 | 50.42601 | -118.74950 | 9746 ft | 191 kts | 284° |
| 2026-04-15 17:56 | 50.42948 | -118.76968 | 9745 ft | 192 kts | 284° |
| 2026-04-15 17:56 | 50.43295 | -118.78979 | 9748 ft | 190 kts | 284° |
| 2026-04-15 17:56 | 50.43634 | -118.80986 | 9748 ft | 190 kts | 284° |
| 2026-04-15 17:56 | 50.43978 | -118.83000 | 9747 ft | 192 kts | 284° |
| 2026-04-15 17:57 | 50.44320 | -118.85024 | 9750 ft | 193 kts | 283° |
| 2026-04-15 17:57 | 50.44668 | -118.87060 | 9751 ft | 193 kts | 284° |
| 2026-04-15 17:57 | 50.45012 | -118.89082 | 9754 ft | 191 kts | 284° |
| 2026-04-15 17:57 | 50.45355 | -118.91109 | 9750 ft | 193 kts | 284° |
| 2026-04-15 17:58 | 50.45700 | -118.93149 | 9750 ft | 194 kts | 284° |
| 2026-04-15 17:58 | 50.46047 | -118.95200 | 9752 ft | 194 kts | 284° |
| 2026-04-15 17:58 | 50.46393 | -118.97247 | 9750 ft | 194 kts | 284° |
| 2026-04-15 17:58 | 50.46737 | -118.99292 | 9750 ft | 194 kts | 285° |
| 2026-04-15 17:59 | 50.47081 | -119.01334 | 9748 ft | 193 kts | 285° |
| 2026-04-15 17:59 | 50.47423 | -119.03370 | 9746 ft | 192 kts | 285° |
| 2026-04-15 17:59 | 50.47759 | -119.05368 | 9749 ft | 192 kts | 285° |
| 2026-04-15 17:59 | 50.48100 | -119.07396 | 9751 ft | 192 kts | 285° |
| 2026-04-15 18:00 | 50.48441 | -119.09427 | 9750 ft | 193 kts | 285° |
| 2026-04-15 18:00 | 50.48782 | -119.11465 | 9748 ft | 193 kts | 285° |
| 2026-04-15 18:00 | 50.49122 | -119.13498 | 9747 ft | 193 kts | 285° |
| 2026-04-15 18:00 | 50.49462 | -119.15529 | 9747 ft | 192 kts | 285° |
| 2026-04-15 18:01 | 50.49801 | -119.17559 | 9750 ft | 193 kts | 285° |
| 2026-04-15 18:01 | 50.50141 | -119.19599 | 9750 ft | 193 kts | 285° |
| 2026-04-15 18:01 | 50.50481 | -119.21646 | 9750 ft | 194 kts | 285° |
| 2026-04-15 18:01 | 50.50818 | -119.23685 | 9751 ft | 192 kts | 286° |
| 2026-04-15 18:02 | 50.51157 | -119.25711 | 9753 ft | 192 kts | 285° |
| 2026-04-15 18:02 | 50.51492 | -119.27732 | 9751 ft | 190 kts | 285° |
| 2026-04-15 18:02 | 50.51826 | -119.29747 | 9756 ft | 191 kts | 285° |
| 2026-04-15 18:02 | 50.52162 | -119.31775 | 9753 ft | 193 kts | 285° |
| 2026-04-15 18:03 | 50.52498 | -119.33816 | 9754 ft | 194 kts | 285° |
| 2026-04-15 18:03 | 50.52837 | -119.35866 | 9755 ft | 193 kts | 285° |
| 2026-04-15 18:03 | 50.53172 | -119.37898 | 9756 ft | 191 kts | 285° |
| 2026-04-15 18:03 | 50.53505 | -119.39918 | 9761 ft | 191 kts | 285° |
| 2026-04-15 18:04 | 50.53836 | -119.41928 | 9755 ft | 189 kts | 285° |
| 2026-04-15 18:04 | 50.54163 | -119.43917 | 9756 ft | 187 kts | 285° |
| 2026-04-15 18:04 | 50.54489 | -119.45903 | 9754 ft | 189 kts | 285° |
| 2026-04-15 18:04 | 50.54816 | -119.47902 | 9755 ft | 188 kts | 285° |
| 2026-04-15 18:05 | 50.55144 | -119.49900 | 9753 ft | 190 kts | 285° |
| 2026-04-15 18:05 | 50.55473 | -119.51917 | 9761 ft | 191 kts | 285° |
| 2026-04-15 18:05 | 50.55802 | -119.53931 | 9764 ft | 190 kts | 285° |
| 2026-04-15 18:05 | 50.56128 | -119.55933 | 9767 ft | 189 kts | 285° |
| 2026-04-15 18:06 | 50.56454 | -119.57932 | 9767 ft | 189 kts | 285° |
| 2026-04-15 18:06 | 50.56783 | -119.59944 | 9764 ft | 190 kts | 285° |
| 2026-04-15 18:06 | 50.57111 | -119.61964 | 9763 ft | 190 kts | 285° |
| 2026-04-15 18:06 | 50.57436 | -119.63972 | 9768 ft | 189 kts | 285° |
| 2026-04-15 18:07 | 50.57763 | -119.65969 | 9764 ft | 188 kts | 286° |
| 2026-04-15 18:07 | 50.58086 | -119.67971 | 9765 ft | 189 kts | 285° |
| 2026-04-15 18:07 | 50.58409 | -119.69974 | 9770 ft | 189 kts | 285° |
| 2026-04-15 18:07 | 50.58733 | -119.71983 | 9769 ft | 190 kts | 284° |
| 2026-04-15 18:08 | 50.59054 | -119.73990 | 9769 ft | 188 kts | 287° |
| 2026-04-15 18:08 | 50.59374 | -119.75971 | 9772 ft | 186 kts | 286° |
| 2026-04-15 18:08 | 50.59695 | -119.77949 | 9789 ft | 187 kts | 286° |
| 2026-04-15 18:08 | 50.60012 | -119.79907 | 9788 ft | 187 kts | 286° |
| 2026-04-15 18:09 | 50.60336 | -119.81928 | 9788 ft | 188 kts | 285° |
| 2026-04-15 18:09 | 50.60652 | -119.83920 | 9791 ft | 187 kts | 287° |
| 2026-04-15 18:09 | 50.60974 | -119.85906 | 9789 ft | 187 kts | 286° |
| 2026-04-15 18:09 | 50.61286 | -119.87867 | 9792 ft | 187 kts | 287° |
| 2026-04-15 18:10 | 50.61602 | -119.89844 | 9795 ft | 186 kts | 287° |
| 2026-04-15 18:10 | 50.61917 | -119.91810 | 9794 ft | 185 kts | 287° |
| 2026-04-15 18:10 | 50.62230 | -119.93774 | 9794 ft | 185 kts | 286° |
| 2026-04-15 18:10 | 50.62544 | -119.95741 | 9790 ft | 186 kts | 286° |
| 2026-04-15 18:11 | 50.62860 | -119.97726 | 9789 ft | 187 kts | 285° |
| 2026-04-15 18:11 | 50.63178 | -119.99713 | 9790 ft | 187 kts | 286° |
| 2026-04-15 18:11 | 50.63491 | -120.01709 | 9790 ft | 188 kts | 285° |
| 2026-04-15 18:11 | 50.63809 | -120.03712 | 9792 ft | 188 kts | 286° |
| 2026-04-15 18:12 | 50.64124 | -120.05711 | 9804 ft | 188 kts | 286° |
| 2026-04-15 18:12 | 50.64442 | -120.07721 | 9803 ft | 190 kts | 286° |
| 2026-04-15 18:12 | 50.64767 | -120.09739 | 9803 ft | 190 kts | 286° |
| 2026-04-15 18:12 | 50.65088 | -120.11774 | 9803 ft | 193 kts | 285° |
| 2026-04-15 18:13 | 50.65407 | -120.13826 | 9802 ft | 190 kts | 285° |
| 2026-04-15 18:13 | 50.65717 | -120.15791 | 9712 ft | 183 kts | 285° |
| 2026-04-15 18:13 | 50.66041 | -120.17838 | 9094 ft | 199 kts | 285° |
| 2026-04-15 18:14 | 50.65225 | -120.21767 | 8372 ft | 207 kts | 219° |
| 2026-04-15 18:14 | 50.63852 | -120.22453 | 8018 ft | 214 kts | 183° |
| 2026-04-15 18:14 | 50.62438 | -120.21785 | 7686 ft | 215 kts | 147° |
| 2026-04-15 18:14 | 50.61507 | -120.19993 | 7357 ft | 212 kts | 111° |
| 2026-04-15 18:15 | 50.61344 | -120.17747 | 6962 ft | 208 kts | 76° |
| 2026-04-15 18:15 | 50.62017 | -120.15842 | 6671 ft | 197 kts | 39° |
| 2026-04-15 18:15 | 50.63203 | -120.14997 | 6334 ft | 191 kts | 2° |
| 2026-04-15 18:15 | 50.64477 | -120.15295 | 6126 ft | 182 kts | 336° |
| 2026-04-15 18:16 | 50.65407 | -120.16632 | 5741 ft | 184 kts | 300° |
| 2026-04-15 18:16 | 50.65898 | -120.18450 | 5439 ft | 183 kts | 292° |
| 2026-04-15 18:16 | 50.66323 | -120.20337 | 5123 ft | 184 kts | 289° |
| 2026-04-15 18:16 | 50.66652 | -120.22299 | 4823 ft | 185 kts | 285° |
| 2026-04-15 18:17 | 50.66957 | -120.24267 | 4541 ft | 185 kts | 285° |
| 2026-04-15 18:17 | 50.67265 | -120.26227 | 4222 ft | 180 kts | 285° |
| 2026-04-15 18:17 | 50.67569 | -120.28133 | 3347 ft | 180 kts | 286° |
| 2026-04-15 18:17 | 50.67864 | -120.30030 | 2743 ft | 175 kts | 285° |
| 2026-04-15 18:18 | 50.68141 | -120.31941 | 2271 ft | 180 kts | 286° |
| 2026-04-15 18:18 | 50.68388 | -120.33817 | 1916 ft | 169 kts | 285° |
| 2026-04-15 18:18 | 50.68721 | -120.35486 | 1770 ft | 146 kts | 292° |
| 2026-04-15 18:18 | 50.69071 | -120.36894 | 1621 ft | 133 kts | 290° |
| 2026-04-15 18:19 | 50.69286 | -120.38219 | 1453 ft | 120 kts | 284° |
| 2026-04-15 18:19 | 50.69490 | -120.39488 | 1429 ft | 116 kts | 284° |
| 2026-04-15 18:19 | 50.69673 | -120.40682 | 1395 ft | 100 kts | 282° |
| 2026-04-15 18:19 | 50.69804 | -120.41598 | 1291 ft | 79 kts | 283° |
| 2026-04-15 18:20 | 50.69937 | -120.42437 | 1208 ft | 81 kts | 282° |
| 2026-04-15 18:20 | 50.70072 | -120.43329 | 1143 ft | 85 kts | 282° |
| 2026-04-15 18:20 | 50.70196 | -120.44144 | 1131 ft | 64 kts | 283° |
| 2026-04-15 18:20 | 50.70261 | -120.44577 | 1122 ft | 14 kts | 309° |
| 2026-04-15 18:21 | 50.70265 | -120.44514 | 1120 ft | 21 kts | 113° |
| 2026-04-15 18:21 | 50.70330 | -120.44363 | 1130 ft | 20 kts | 31° |
| 2026-04-15 18:21 | 50.70398 | -120.44177 | 1131 ft | 20 kts | 62° |
| 2026-04-15 18:21 | 50.70441 | -120.44048 | 1132 ft | 20 kts | 62° |
| 2026-04-15 18:22 | 50.70502 | -120.43866 | 1131 ft | 13 kts | 63° |
| 2026-04-15 18:22 | 50.70530 | -120.43795 | 1131 ft | 2 kts | 58° |
| 2026-04-15 18:22 | 50.70569 | -120.43794 | 1129 ft | 5 kts | 343° |
| 2026-04-15 18:22 | 50.70587 | -120.43755 | 1131 ft | 0 kts | 57° |